Time;durP1;ratioP1;P1;durP2;ratioP2;P2;SDS_P1;SDS_P2;PMS_P1;PMS_P2;Temp;Humidity;BMP_temperature;BMP_pressure;BME280_temperature;BME280_humidity;BME280_pressure;Samples;Min_cycle;Max_cycle;Signal;HPM_P1;HPM_P2
2022/03/18 00:00:18;;;;;;;6.63;1.35;;;33.30;95.20;;;;;;5070759;28;20029;-74
2022/03/18 00:02:55;;;;;;;4.53;1.75;;;32.80;95.90;;;;;;5076071;28;20032;-74
2022/03/18 00:05:24;;;;;;;3.63;1.73;;;31.80;96.80;;;;;;5070948;28;20041;-74
2022/03/18 00:07:52;;;;;;;5.80;1.75;;;31.50;97.70;;;;;;5060437;28;20032;-74
2022/03/18 00:10:20;;;;;;;8.48;1.92;;;31.50;97.70;;;;;;5062923;28;20036;-75
2022/03/18 00:12:49;;;;;;;7.63;1.90;;;31.70;96.60;;;;;;5051139;28;20029;-74
2022/03/18 00:15:16;;;;;;;5.28;1.98;;;31.60;96.60;;;;;;5067082;28;20115;-74
2022/03/18 00:17:44;;;;;;;5.47;2.40;;;31.50;96.60;;;;;;5066178;28;20036;-74
2022/03/18 00:20:13;;;;;;;5.90;1.70;;;31.10;97.10;;;;;;5054645;28;20017;-74
2022/03/18 00:22:43;;;;;;;5.70;2.70;;;30.50;97.50;;;;;;5059890;28;20035;-74
2022/03/18 00:25:12;;;;;;;2.80;2.13;;;30.20;98.30;;;;;;5062617;28;20055;-75
2022/03/18 00:27:42;;;;;;;5.70;2.03;;;30.00;98.10;;;;;;5056861;28;20102;-75
2022/03/18 00:30:14;;;;;;;4.30;1.60;;;30.10;98.70;;;;;;5061040;28;20052;-74
2022/03/18 00:32:43;;;;;;;7.47;2.15;;;30.40;98.20;;;;;;5060480;28;20139;-74
2022/03/18 00:35:11;;;;;;;4.93;2.25;;;30.30;99.20;;;;;;5060632;28;20400;-73
2022/03/18 00:37:40;;;;;;;4.80;2.40;;;30.80;98.90;;;;;;5057803;28;20032;-75
2022/03/18 00:40:10;;;;;;;4.88;1.77;;;30.80;97.50;;;;;;5057914;28;20024;-75
2022/03/18 00:42:37;;;;;;;5.15;1.77;;;30.60;98.10;;;;;;5058521;28;20118;-76
2022/03/18 00:45:05;;;;;;;4.10;2.45;;;30.30;98.60;;;;;;5058253;28;20040;-73
2022/03/18 00:53:05;;;;;;;7.20;2.33;;;29.50;99.00;;;;;;5055884;28;20107;-74
2022/03/18 00:55:33;;;;;;;3.17;1.55;;;29.10;99.10;;;;;;5052434;28;20048;-78
2022/03/18 00:58:00;;;;;;;3.33;1.52;;;29.00;99.70;;;;;;5051854;28;20031;-78
2022/03/18 01:00:28;;;;;;;5.40;1.63;;;29.10;99.80;;;;;;5054313;28;20060;-78
2022/03/18 01:02:56;;;;;;;7.55;2.65;;;29.30;99.40;;;;;;5051491;28;20029;-78
2022/03/18 01:05:23;;;;;;;4.72;2.05;;;30.10;98.80;;;;;;5051810;28;20024;-75
2022/03/18 01:07:50;;;;;;;4.10;1.50;;;30.50;97.80;;;;;;5060784;28;20028;-77
2022/03/18 01:10:18;;;;;;;4.13;1.70;;;30.70;98.30;;;;;;5063166;28;20112;-76
2022/03/18 01:12:45;;;;;;;6.05;2.50;;;30.70;97.80;;;;;;5056765;28;20028;-76
2022/03/18 01:15:12;;;;;;;7.80;2.10;;;30.60;98.40;;;;;;5054952;28;20017;-75
2022/03/18 01:17:40;;;;;;;5.88;2.08;;;30.30;97.60;;;;;;5059410;28;21813;-79
2022/03/18 01:20:07;;;;;;;4.18;1.90;;;30.00;98.20;;;;;;5055136;28;20108;-76
2022/03/18 01:22:35;;;;;;;6.07;2.28;;;30.70;98.20;;;;;;5052053;28;20036;-80
2022/03/18 01:25:02;;;;;;;3.25;1.85;;;31.60;96.90;;;;;;5053316;28;20032;-76
2022/03/18 01:27:30;;;;;;;6.90;1.95;;;32.50;95.80;;;;;;5059519;28;20524;-76
2022/03/18 01:29:57;;;;;;;4.28;1.42;;;32.40;95.70;;;;;;5060125;28;20028;-79
2022/03/18 01:32:24;;;;;;;5.55;2.03;;;32.30;95.30;;;;;;5059998;28;20032;-76
2022/03/18 01:34:51;;;;;;;4.30;1.45;;;31.80;95.40;;;;;;5054873;28;20493;-78
2022/03/18 01:37:19;;;;;;;5.57;1.48;;;31.90;95.50;;;;;;5056311;28;20025;-77
2022/03/18 01:39:46;;;;;;;5.22;1.70;;;31.90;95.80;;;;;;5055295;28;20041;-74
2022/03/18 01:42:13;;;;;;;4.40;1.80;;;31.90;95.10;;;;;;5052007;28;20033;-77
2022/03/18 01:44:42;;;;;;;3.38;1.80;;;31.70;95.90;;;;;;5059314;28;20490;-77
2022/03/18 01:47:13;;;;;;;3.42;1.58;;;31.90;95.50;;;;;;5056340;28;20032;-78
2022/03/18 01:49:40;;;;;;;3.80;1.52;;;32.20;94.80;;;;;;5055926;28;20024;-75
2022/03/18 01:52:09;;;;;;;6.43;2.10;;;32.20;94.90;;;;;;5054959;28;20032;-79
2022/03/18 01:54:49;;;;;;;7.07;1.88;;;32.10;95.10;;;;;;5057586;28;20024;-77
2022/03/18 01:57:22;;;;;;;3.60;1.13;;;31.40;95.70;;;;;;5055988;28;20513;-75
2022/03/18 01:59:51;;;;;;;2.85;1.27;;;31.20;95.80;;;;;;5055243;28;20032;-77
2022/03/18 02:02:20;;;;;;;5.60;1.65;;;31.40;96.20;;;;;;5057182;28;20036;-77
2022/03/18 02:04:48;;;;;;;5.38;1.60;;;31.90;95.60;;;;;;5069825;28;20418;-77
2022/03/18 02:07:16;;;;;;;4.25;1.08;;;32.30;94.70;;;;;;5054207;28;20025;-74
2022/03/18 02:09:44;;;;;;;1.80;0.90;;;32.40;94.40;;;;;;5058926;28;20035;-75
2022/03/18 02:12:12;;;;;;;3.47;1.25;;;32.50;94.70;;;;;;5056456;28;20517;-75
2022/03/18 02:14:47;;;;;;;3.38;1.30;;;32.50;94.70;;;;;;5062424;28;20029;-74
2022/03/18 02:17:15;;;;;;;;;;;32.90;94.50;;;;;;5060402;28;20032;-74
2022/03/18 02:19:45;;;;;;;3.08;1.23;;;33.50;94.60;;;;;;5064064;28;19913;-75
2022/03/18 02:22:24;;;;;;;1.85;1.25;;;33.80;93.90;;;;;;5059244;28;20111;-75
2022/03/18 02:24:56;;;;;;;4.10;1.48;;;33.90;92.70;;;;;;5054651;28;20040;-76
2022/03/18 02:27:24;;;;;;;1.95;0.93;;;33.80;92.90;;;;;;5070441;28;20391;-74
2022/03/18 02:29:51;;;;;;;1.98;1.33;;;34.00;92.70;;;;;;5061457;28;20053;-74
2022/03/18 02:32:20;;;;;;;2.58;1.48;;;34.10;93.10;;;;;;5058459;28;20033;-75
2022/03/18 02:34:50;;;;;;;3.55;1.10;;;34.00;93.00;;;;;;5068646;28;20025;-73
2022/03/18 02:37:18;;;;;;;2.45;1.13;;;34.10;92.80;;;;;;5061995;28;20025;-75
2022/03/18 02:39:45;;;;;;;6.68;1.40;;;34.20;92.20;;;;;;5056726;28;20100;-73
2022/03/18 02:42:12;;;;;;;4.03;1.63;;;34.10;92.50;;;;;;5058797;28;20554;-75
2022/03/18 02:44:39;;;;;;;7.03;1.40;;;34.00;92.30;;;;;;5054285;28;20058;-73
2022/03/18 02:47:07;;;;;;;4.72;1.48;;;34.10;92.00;;;;;;5055692;28;20023;-77
2022/03/18 02:49:34;;;;;;;2.28;1.00;;;34.40;92.00;;;;;;5060770;28;20041;-75
2022/03/18 02:52:02;;;;;;;3.70;1.60;;;34.40;91.80;;;;;;5060795;28;20451;-78
2022/03/18 02:54:29;;;;;;;5.35;1.35;;;34.30;91.80;;;;;;5059771;28;20595;-72
2022/03/18 02:56:56;;;;;;;2.08;1.35;;;34.10;92.10;;;;;;5054855;28;20057;-74
2022/03/18 02:59:24;;;;;;;3.22;1.08;;;33.80;92.00;;;;;;5055170;28;20043;-76
2022/03/18 03:01:51;;;;;;;1.50;1.17;;;33.50;92.20;;;;;;5055241;28;20105;-73
2022/03/18 03:04:18;;;;;;;3.88;1.10;;;32.90;92.70;;;;;;5064211;28;20050;-73
2022/03/18 03:09:32;;;;;;;5.28;1.92;;;32.70;93.10;;;;;;5064316;28;20085;-73
2022/03/18 03:12:00;;;;;;;1.95;1.08;;;32.90;91.60;;;;;;5063873;28;20550;-73
2022/03/18 03:14:27;;;;;;;5.22;1.67;;;33.20;92.20;;;;;;5062799;28;20107;-75
2022/03/18 03:16:54;;;;;;;2.20;1.05;;;33.70;92.60;;;;;;5065843;28;20013;-79
2022/03/18 03:19:22;;;;;;;2.92;1.48;;;34.00;91.30;;;;;;5067592;28;20024;-76
2022/03/18 03:21:49;;;;;;;5.95;1.65;;;34.00;91.40;;;;;;5065308;28;20152;-76
2022/03/18 03:24:17;;;;;;;5.07;1.52;;;33.80;91.30;;;;;;5059966;28;20058;-77
2022/03/18 03:26:47;;;;;;;5.25;1.20;;;34.00;91.40;;;;;;5059769;28;20077;-74
2022/03/18 03:29:15;;;;;;;3.20;1.15;;;33.90;91.10;;;;;;5064207;28;20039;-75
2022/03/18 03:31:42;;;;;;;2.63;1.23;;;33.40;91.70;;;;;;5056444;28;20126;-76
2022/03/18 03:34:10;;;;;;;2.58;0.88;;;33.10;92.00;;;;;;5067463;28;20029;-74
2022/03/18 03:36:37;;;;;;;5.05;1.20;;;33.20;91.80;;;;;;5063674;28;20036;-77
2022/03/18 03:39:04;;;;;;;2.53;1.30;;;32.90;91.40;;;;;;5062012;28;20039;-78
2022/03/18 03:41:32;;;;;;;2.78;1.30;;;32.60;91.40;;;;;;5066425;28;20028;-78
2022/03/18 03:43:59;;;;;;;3.28;1.38;;;32.90;91.80;;;;;;5057334;28;20056;-75
2022/03/18 03:46:27;;;;;;;7.40;2.10;;;33.30;91.50;;;;;;5063981;28;20478;-75
2022/03/18 03:48:54;;;;;;;2.17;0.77;;;33.70;91.00;;;;;;5055131;28;20043;-74
2022/03/18 03:51:22;;;;;;;8.32;1.60;;;34.00;90.80;;;;;;5053426;28;20502;-74
2022/03/18 03:53:49;;;;;;;4.82;1.20;;;33.90;90.60;;;;;;5052432;28;20025;-75
2022/03/18 03:56:16;;;;;;;4.05;1.35;;;33.60;90.40;;;;;;5051302;28;20024;-74
2022/03/18 03:58:43;;;;;;;6.40;1.30;;;33.50;90.60;;;;;;5059147;28;20910;-75
2022/03/18 04:01:11;;;;;;;3.80;1.30;;;33.30;91.20;;;;;;5062508;28;20077;-76
2022/03/18 04:03:38;;;;;;;3.38;1.15;;;33.10;91.30;;;;;;5054564;28;20044;-75
2022/03/18 04:06:06;;;;;;;1.70;0.80;;;32.90;91.30;;;;;;5065454;28;20031;-78
2022/03/18 04:08:33;;;;;;;4.43;1.20;;;32.60;90.90;;;;;;5054546;28;20032;-76
2022/03/18 04:11:00;;;;;;;2.72;1.35;;;32.10;91.20;;;;;;5066156;28;20537;-74
2022/03/18 04:13:28;;;;;;;3.45;0.95;;;31.80;91.10;;;;;;5063383;28;20036;-75
2022/03/18 04:15:55;;;;;;;4.55;0.82;;;31.60;91.50;;;;;;5053783;28;20475;-74
2022/03/18 04:18:22;;;;;;;3.03;1.20;;;31.50;91.40;;;;;;5052599;28;20532;-75
2022/03/18 04:20:50;;;;;;;1.98;0.95;;;31.40;91.70;;;;;;5055944;28;20488;-74
2022/03/18 04:23:17;;;;;;;3.15;1.20;;;31.20;92.00;;;;;;5057073;28;20032;-75
2022/03/18 04:25:44;;;;;;;4.35;1.33;;;31.00;92.20;;;;;;5052197;28;20550;-74
2022/03/18 04:28:12;;;;;;;4.18;0.88;;;30.90;92.30;;;;;;5058296;28;20032;-75
2022/03/18 04:30:39;;;;;;;4.13;1.50;;;30.90;93.10;;;;;;5056243;28;20509;-73
2022/03/18 04:33:07;;;;;;;2.42;1.15;;;31.10;93.10;;;;;;5057699;28;20039;-73
2022/03/18 04:35:34;;;;;;;2.67;1.35;;;31.20;93.70;;;;;;5056718;28;20040;-75
2022/03/18 04:38:01;;;;;;;1.98;1.10;;;31.50;93.50;;;;;;5056642;28;20182;-75
2022/03/18 04:40:29;;;;;;;8.40;1.45;;;31.60;93.30;;;;;;5053807;28;20024;-74
2022/03/18 04:42:56;;;;;;;4.53;1.10;;;32.20;93.30;;;;;;5050327;28;20051;-74
2022/03/18 04:45:24;;;;;;;7.05;1.50;;;32.70;92.80;;;;;;5058089;28;20045;-75
2022/03/18 04:47:51;;;;;;;2.22;0.90;;;33.10;92.00;;;;;;5052340;28;20032;-75
2022/03/18 04:50:19;;;;;;;4.72;1.02;;;33.20;91.80;;;;;;5051603;28;20025;-77
2022/03/18 04:52:46;;;;;;;3.55;1.38;;;33.20;92.10;;;;;;5053463;28;20038;-77
2022/03/18 04:55:13;;;;;;;3.17;1.10;;;33.30;91.60;;;;;;5053588;28;20395;-74
2022/03/18 04:57:40;;;;;;;3.60;1.05;;;33.30;92.20;;;;;;5053687;28;20021;-77
2022/03/18 05:00:09;;;;;;;2.20;0.90;;;33.60;92.20;;;;;;5054818;28;20036;-74
2022/03/18 05:02:37;;;;;;;4.57;0.80;;;33.80;92.20;;;;;;5058692;28;20093;-74
2022/03/18 05:05:08;;;;;;;2.40;1.05;;;33.90;91.40;;;;;;5057742;28;20037;-76
2022/03/18 05:07:38;;;;;;;2.63;0.80;;;33.80;91.50;;;;;;5061715;28;20029;-80
2022/03/18 05:10:07;;;;;;;2.55;1.00;;;33.90;91.50;;;;;;5055342;28;20036;-75
2022/03/18 05:12:35;;;;;;;1.85;0.95;;;34.00;91.30;;;;;;5056178;28;20058;-74
2022/03/18 05:15:02;;;;;;;2.25;0.98;;;34.00;91.70;;;;;;5059572;28;20031;-74
2022/03/18 05:17:30;;;;;;;4.03;1.48;;;33.80;91.50;;;;;;5057552;28;20033;-75
2022/03/18 05:19:57;;;;;;;4.75;1.00;;;33.80;91.70;;;;;;5060400;28;20048;-73
2022/03/18 05:22:24;;;;;;;2.08;0.80;;;33.60;90.90;;;;;;5061671;28;20032;-74
2022/03/18 05:24:52;;;;;;;2.20;0.93;;;33.40;90.80;;;;;;5067770;28;20051;-74
2022/03/18 05:27:20;;;;;;;5.00;0.80;;;33.30;90.70;;;;;;5071000;28;20032;-75
2022/03/18 05:29:49;;;;;;;2.47;1.10;;;33.20;91.10;;;;;;5065836;28;20046;-73
2022/03/18 05:32:16;;;;;;;1.50;0.70;;;33.20;91.10;;;;;;5058125;28;20033;-73
2022/03/18 05:34:44;;;;;;;2.28;0.70;;;33.40;90.60;;;;;;5059379;28;20036;-75
2022/03/18 05:37:11;;;;;;;1.85;1.05;;;33.40;90.50;;;;;;5059435;28;20032;-76
2022/03/18 05:39:39;;;;;;;3.90;0.70;;;33.30;90.20;;;;;;5067720;28;20028;-75
2022/03/18 05:42:07;;;;;;;2.22;0.85;;;33.00;91.10;;;;;;5067205;28;20033;-74
2022/03/18 05:44:34;;;;;;;3.80;0.75;;;32.90;90.70;;;;;;5066827;28;20063;-75
2022/03/18 05:47:01;;;;;;;3.88;1.10;;;32.70;90.60;;;;;;5066654;28;20161;-74
2022/03/18 05:49:28;;;;;;;2.25;1.00;;;32.30;90.90;;;;;;5070383;28;20059;-76
2022/03/18 05:51:57;;;;;;;1.95;0.82;;;32.10;91.30;;;;;;5068013;28;20043;-76
2022/03/18 05:54:24;;;;;;;3.05;1.20;;;32.10;91.70;;;;;;5061484;28;20033;-75
2022/03/18 05:56:54;;;;;;;2.22;1.10;;;32.10;91.70;;;;;;5063841;28;20021;-75
2022/03/18 05:59:26;;;;;;;5.00;1.55;;;32.30;92.00;;;;;;5070730;28;20107;-75
2022/03/18 06:01:59;;;;;;;3.83;1.00;;;32.00;91.60;;;;;;5069017;28;20032;-75
2022/03/18 06:04:27;;;;;;;3.25;0.93;;;31.80;91.70;;;;;;5064094;28;20040;-76
2022/03/18 06:06:54;;;;;;;3.88;0.90;;;31.50;92.50;;;;;;5066350;28;20024;-75
2022/03/18 06:12:07;;;;;;;;;;;31.20;92.80;;;;;;5069705;28;20259;-75
2022/03/18 06:14:34;;;;;;;2.50;0.65;;;31.00;92.90;;;;;;5068086;28;20278;-75
2022/03/18 06:17:05;;;;;;;8.05;1.15;;;30.70;93.10;;;;;;5066623;28;20020;-75
2022/03/18 06:19:33;;;;;;;5.53;1.60;;;30.40;93.30;;;;;;5083475;28;20017;-74
2022/03/18 06:22:01;;;;;;;5.43;0.85;;;30.10;93.70;;;;;;5068458;28;20032;-74
2022/03/18 06:24:29;;;;;;;3.97;1.27;;;29.90;94.00;;;;;;5065564;28;20043;-74
2022/03/18 06:26:58;;;;;;;5.13;0.88;;;29.80;94.10;;;;;;5066658;28;20039;-74
2022/03/18 06:29:25;;;;;;;4.68;1.17;;;29.50;94.40;;;;;;5053186;28;20100;-73
2022/03/18 06:31:53;;;;;;;2.67;0.90;;;29.40;94.90;;;;;;5062076;28;20024;-74
2022/03/18 06:34:20;;;;;;;2.88;0.90;;;29.30;94.90;;;;;;5062200;28;20075;-75
2022/03/18 06:36:49;;;;;;;1.67;0.73;;;29.10;95.20;;;;;;5060505;28;20033;-74
2022/03/18 06:39:17;;;;;;;3.78;0.85;;;29.00;95.30;;;;;;5068516;28;20486;-74
2022/03/18 06:41:45;;;;;;;6.13;1.42;;;28.90;95.40;;;;;;5062701;28;20431;-74
2022/03/18 06:44:13;;;;;;;4.13;1.05;;;28.90;95.70;;;;;;5059163;28;20493;-75
2022/03/18 06:46:40;;;;;;;3.72;0.80;;;28.80;95.80;;;;;;5065714;28;20033;-75
2022/03/18 06:49:08;;;;;;;7.60;1.50;;;28.70;95.90;;;;;;5055371;28;20036;-77
2022/03/18 06:51:36;;;;;;;3.22;1.15;;;28.70;96.10;;;;;;5060389;28;20056;-76
2022/03/18 06:54:04;;;;;;;3.38;1.10;;;28.60;96.30;;;;;;5067772;28;20082;-77
2022/03/18 06:56:31;;;;;;;2.90;1.10;;;28.60;96.30;;;;;;5066929;28;20021;-77
2022/03/18 06:58:59;;;;;;;4.30;1.45;;;28.50;96.40;;;;;;5059196;28;20035;-74
2022/03/18 07:01:27;;;;;;;3.47;1.52;;;28.40;96.60;;;;;;5053442;28;20064;-75
2022/03/18 07:03:55;;;;;;;6.70;2.20;;;28.30;96.90;;;;;;5079750;28;20460;-75
2022/03/18 07:06:22;;;;;;;3.33;1.85;;;28.00;96.80;;;;;;5062441;28;20368;-76
2022/03/18 07:08:49;;;;;;;4.50;2.28;;;27.90;97.20;;;;;;5061163;28;20054;-78
2022/03/18 07:11:17;;;;;;;4.15;2.25;;;27.70;97.50;;;;;;5058936;28;20032;-76
2022/03/18 07:13:46;;;;;;;5.97;1.85;;;27.50;97.80;;;;;;5069940;28;20024;-74
2022/03/18 07:18:59;;;;;;;3.60;1.70;;;27.20;98.50;;;;;;5058826;28;20044;-75
2022/03/18 07:21:26;;;;;;;5.53;2.60;;;27.10;98.80;;;;;;5054549;28;20486;-77
2022/03/18 07:23:53;;;;;;;4.28;1.65;;;26.90;99.20;;;;;;5060844;28;20090;-74
2022/03/18 07:26:21;;;;;;;4.93;2.08;;;26.80;99.50;;;;;;5052721;28;20502;-75
2022/03/18 07:28:48;;;;;;;4.57;2.45;;;26.70;99.40;;;;;;5061008;28;20463;-75
2022/03/18 07:31:16;;;;;;;3.45;1.30;;;26.80;99.70;;;;;;5065797;28;20044;-72
2022/03/18 07:33:43;;;;;;;3.35;1.27;;;26.70;99.60;;;;;;5052297;28;20044;-74
2022/03/18 07:36:10;;;;;;;6.13;2.42;;;26.70;99.90;;;;;;5055591;28;20036;-74
2022/03/18 07:38:38;;;;;;;4.95;2.58;;;26.60;99.90;;;;;;5068863;28;20410;-74
2022/03/18 07:41:05;;;;;;;5.63;1.83;;;26.50;99.90;;;;;;5065983;28;20385;-74
2022/03/18 07:43:33;;;;;;;5.95;1.30;;;26.40;99.90;;;;;;5057921;28;20102;-74
2022/03/18 07:46:00;;;;;;;6.75;1.67;;;26.40;99.90;;;;;;5051826;28;20028;-74
2022/03/18 07:48:27;;;;;;;4.20;1.80;;;26.20;99.90;;;;;;5051841;28;20055;-74
2022/03/18 07:50:55;;;;;;;2.92;1.65;;;26.10;99.90;;;;;;5054400;28;20040;-74
2022/03/18 07:53:23;;;;;;;4.97;1.73;;;26.10;99.90;;;;;;5052914;28;22631;-74
2022/03/18 07:55:50;;;;;;;5.68;1.52;;;26.00;99.90;;;;;;5052110;28;20525;-75
2022/03/18 07:58:18;;;;;;;2.65;1.58;;;25.90;99.90;;;;;;5059252;28;20036;-75
2022/03/18 08:00:46;;;;;;;3.40;1.75;;;25.80;99.90;;;;;;5060321;28;20402;-75
2022/03/18 08:03:14;;;;;;;6.00;1.80;;;25.80;99.90;;;;;;5062006;28;20032;-74
2022/03/18 08:05:42;;;;;;;3.97;1.77;;;25.70;99.90;;;;;;5065541;28;20120;-74
2022/03/18 08:08:10;;;;;;;3.45;1.70;;;25.70;99.90;;;;;;5059444;28;20048;-73
2022/03/18 08:10:38;;;;;;;4.05;2.00;;;25.70;99.90;;;;;;5063938;28;20049;-75
2022/03/18 08:13:06;;;;;;;6.05;2.47;;;25.80;99.90;;;;;;5050469;28;20168;-75
2022/03/18 08:15:35;;;;;;;4.97;2.20;;;25.80;99.90;;;;;;5055926;28;20153;-75
2022/03/18 08:18:03;;;;;;;7.18;2.20;;;25.80;99.90;;;;;;5054982;28;20062;-73
2022/03/18 08:20:30;;;;;;;5.07;2.00;;;25.70;99.90;;;;;;5056294;28;20036;-72
2022/03/18 08:22:58;;;;;;;11.98;2.45;;;25.60;99.90;;;;;;5056822;28;20028;-74
2022/03/18 08:25:25;;;;;;;7.55;2.22;;;25.60;99.90;;;;;;5054218;28;20094;-73
2022/03/18 08:27:52;;;;;;;4.47;2.53;;;25.70;99.90;;;;;;5054756;28;20339;-73
2022/03/18 08:30:20;;;;;;;4.78;1.80;;;25.70;99.90;;;;;;5065509;28;20024;-73
2022/03/18 08:32:47;;;;;;;5.35;2.35;;;25.70;99.90;;;;;;5056513;28;20027;-73
2022/03/18 08:35:15;;;;;;;4.18;2.10;;;25.80;99.90;;;;;;5055237;28;20112;-72
2022/03/18 08:37:57;;;;;;;9.35;2.28;;;25.80;99.90;;;;;;5052143;28;20036;-72
2022/03/18 08:40:33;;;;;;;3.90;1.80;;;25.80;99.90;;;;;;5054431;28;20032;-72
2022/03/18 08:43:05;;;;;;;3.65;2.28;;;25.90;99.90;;;;;;5055998;28;20967;-74
2022/03/18 08:45:36;;;;;;;5.43;2.40;;;25.90;99.90;;;;;;5054241;28;20053;-74
2022/03/18 08:48:04;;;;;;;8.65;2.85;;;26.00;99.90;;;;;;5054360;28;20025;-75
2022/03/18 08:50:32;;;;;;;8.13;2.83;;;26.00;99.90;;;;;;5051995;28;20037;-76
2022/03/18 08:53:00;;;;;;;4.70;1.95;;;26.00;99.90;;;;;;5061511;28;20021;-73
2022/03/18 08:55:27;;;;;;;2.45;1.40;;;25.80;99.90;;;;;;5054187;28;20032;-74
2022/03/18 08:57:55;;;;;;;3.20;2.22;;;25.70;99.90;;;;;;5058789;28;20024;-73
2022/03/18 09:00:22;;;;;;;3.70;1.73;;;25.60;99.90;;;;;;5056156;28;20037;-73
2022/03/18 09:02:50;;;;;;;7.40;2.50;;;25.50;99.90;;;;;;5056875;28;20037;-75
2022/03/18 09:05:18;;;;;;;3.47;1.55;;;25.50;99.90;;;;;;5055145;28;20041;-73
2022/03/18 09:07:46;;;;;;;4.88;2.17;;;25.30;99.90;;;;;;5054064;28;20046;-75
2022/03/18 09:10:14;;;;;;;4.55;1.85;;;25.00;99.90;;;;;;5056168;28;20040;-73
2022/03/18 09:12:49;;;;;;;2.92;1.35;;;24.90;99.90;;;;;;5052405;28;20037;-72
2022/03/18 09:15:20;;;;;;;3.53;1.20;;;24.70;99.90;;;;;;5058104;28;20039;-72
2022/03/18 09:17:47;;;;;;;1.98;1.17;;;24.60;99.90;;;;;;5065462;28;20059;-75
2022/03/18 09:20:15;;;;;;;2.08;1.40;;;24.50;99.90;;;;;;5056256;28;20490;-74
2022/03/18 09:22:42;;;;;;;2.40;1.23;;;24.40;99.90;;;;;;5052308;28;20024;-74
2022/03/18 09:25:10;;;;;;;2.95;1.20;;;24.40;99.90;;;;;;5052569;28;20045;-75
2022/03/18 09:27:38;;;;;;;4.25;1.45;;;24.50;99.90;;;;;;5053281;28;20032;-73
2022/03/18 09:30:06;;;;;;;1.30;1.15;;;24.50;99.90;;;;;;5054418;28;20126;-74
2022/03/18 09:32:33;;;;;;;2.60;1.50;;;24.40;99.90;;;;;;5052818;28;20498;-72
2022/03/18 09:35:00;;;;;;;1.83;1.20;;;24.40;99.90;;;;;;5051663;28;20026;-74
2022/03/18 09:37:28;;;;;;;3.90;1.30;;;24.40;99.90;;;;;;5052798;28;20102;-74
2022/03/18 09:39:55;;;;;;;3.20;1.20;;;24.50;99.90;;;;;;5048802;28;20806;-74
2022/03/18 09:42:23;;;;;;;1.98;1.05;;;24.60;99.90;;;;;;5052176;28;20025;-74
2022/03/18 09:44:50;;;;;;;2.22;1.60;;;24.50;99.90;;;;;;5054735;28;20140;-75
2022/03/18 09:47:21;;;;;;;2.70;1.13;;;24.50;99.90;;;;;;5056758;28;20032;-76
2022/03/18 09:49:48;;;;;;;3.88;1.77;;;24.40;99.90;;;;;;5057325;28;20035;-78
2022/03/18 09:52:16;;;;;;;2.40;1.20;;;24.30;99.90;;;;;;5055574;28;20055;-77
2022/03/18 09:54:43;;;;;;;4.72;1.98;;;24.10;99.90;;;;;;5056478;28;20143;-76
2022/03/18 09:57:11;;;;;;;3.70;1.98;;;23.80;99.90;;;;;;5059212;28;20040;-76
2022/03/18 09:59:38;;;;;;;3.35;1.77;;;23.70;99.90;;;;;;5058935;28;20028;-77
2022/03/18 10:02:26;;;;;;;3.08;1.23;;;23.40;99.90;;;;;;5070609;28;20020;-79
2022/03/18 10:04:59;;;;;;;3.53;1.33;;;23.40;99.90;;;;;;5058559;28;20491;-78
2022/03/18 10:07:28;;;;;;;4.05;1.23;;;23.30;99.90;;;;;;5057480;28;20513;-76
2022/03/18 10:10:05;;;;;;;6.78;1.30;;;23.20;99.90;;;;;;5059023;28;20891;-78
2022/03/18 10:12:40;;;;;;;2.65;1.25;;;23.10;99.90;;;;;;5057653;28;20036;-76
2022/03/18 10:15:16;;;;;;;4.40;2.03;;;23.00;99.90;;;;;;5055634;28;20021;-75
2022/03/18 10:17:51;;;;;;;2.72;1.58;;;23.00;99.90;;;;;;5056612;28;20021;-76
2022/03/18 10:20:30;;;;;;;4.72;2.03;;;23.00;99.90;;;;;;5061207;28;20020;-76
2022/03/18 10:23:18;;;;;;;3.22;1.50;;;23.00;99.90;;;;;;5059055;28;20090;-77
2022/03/18 10:25:54;;;;;;;3.05;1.90;;;22.90;99.90;;;;;;5053584;28;20051;-74
2022/03/18 10:28:43;;;;;;;4.50;1.42;;;22.80;99.90;;;;;;5056546;28;20120;-76
2022/03/18 10:31:25;;;;;;;6.80;3.00;;;22.80;99.90;;;;;;5059114;28;20068;-76
2022/03/18 10:39:39;;;;;;;4.78;1.60;;;22.90;99.90;;;;;;5058820;28;20040;-76
2022/03/18 10:42:13;;;;;;;3.25;1.30;;;22.90;99.90;;;;;;5055898;28;20059;-76
2022/03/18 10:44:51;;;;;;;3.22;2.08;;;22.90;99.90;;;;;;5057685;28;20080;-76
2022/03/18 10:47:31;;;;;;;9.10;2.70;;;22.90;99.90;;;;;;5051907;28;20021;-76
2022/03/18 10:50:29;;;;;;;3.25;2.17;;;23.00;99.90;;;;;;5055971;28;20025;-76
2022/03/18 10:53:02;;;;;;;2.38;1.88;;;23.00;99.90;;;;;;5055997;28;20094;-76
2022/03/18 10:55:31;;;;;;;5.80;2.10;;;23.00;99.90;;;;;;5058262;28;20095;-76
2022/03/18 10:58:03;;;;;;;4.32;1.98;;;23.00;99.90;;;;;;5071280;28;20111;-75
2022/03/18 11:00:42;;;;;;;5.20;2.05;;;23.10;99.90;;;;;;5054996;28;20049;-75
2022/03/18 11:03:11;;;;;;;3.70;1.90;;;23.10;99.90;;;;;;5054007;28;20104;-75
2022/03/18 11:05:45;;;;;;;5.03;2.63;;;23.00;99.90;;;;;;5052578;28;20518;-75
2022/03/18 11:08:21;;;;;;;10.25;2.58;;;23.00;99.90;;;;;;5052069;28;20904;-77
2022/03/18 11:13:47;;;;;;;2.10;1.65;;;23.00;99.90;;;;;;5057391;28;20114;-75
2022/03/18 11:16:28;;;;;;;3.92;2.20;;;22.90;99.90;;;;;;5065526;28;20052;-75
2022/03/18 11:18:57;;;;;;;6.20;2.50;;;22.90;99.90;;;;;;5071458;28;20089;-74
2022/03/18 11:21:35;;;;;;;3.90;1.77;;;23.00;99.90;;;;;;5067850;28;20463;-76
2022/03/18 11:24:07;;;;;;;3.00;2.15;;;22.90;99.90;;;;;;5063605;28;20029;-75
2022/03/18 11:26:36;;;;;;;4.05;1.98;;;22.90;99.90;;;;;;5052764;28;20081;-77
2022/03/18 11:29:16;;;;;;;6.03;2.30;;;22.90;99.90;;;;;;5061394;28;20029;-75
2022/03/18 11:31:44;;;;;;;3.20;2.30;;;22.80;99.90;;;;;;5060475;28;20094;-74
2022/03/18 11:34:19;;;;;;;4.47;2.60;;;22.80;99.90;;;;;;5070451;28;20382;-74
2022/03/18 11:37:05;;;;;;;3.53;2.28;;;22.70;99.90;;;;;;5062956;28;20530;-75
2022/03/18 11:39:32;;;;;;;2.47;2.08;;;22.70;99.90;;;;;;5051669;28;20071;-74
2022/03/18 11:42:09;;;;;;;3.70;1.98;;;22.60;99.90;;;;;;5063773;28;20040;-74
2022/03/18 11:44:43;;;;;;;4.28;2.42;;;22.70;99.90;;;;;;5070979;28;20056;-75
2022/03/18 11:47:23;;;;;;;5.80;2.90;;;22.60;99.90;;;;;;5062445;28;20050;-74
2022/03/18 11:49:51;;;;;;;3.22;2.20;;;22.60;99.90;;;;;;5065511;28;20032;-73
2022/03/18 11:52:18;;;;;;;6.32;2.72;;;22.60;99.90;;;;;;5061555;28;20034;-73
2022/03/18 11:55:09;;;;;;;4.53;2.70;;;22.60;99.90;;;;;;5060835;28;20024;-77
2022/03/18 11:57:45;;;;;;;5.32;2.17;;;22.50;99.90;;;;;;5057863;28;20455;-75
2022/03/18 12:00:41;;;;;;;8.70;2.67;;;22.50;99.90;;;;;;5065921;28;20056;-74
2022/03/18 12:03:08;;;;;;;7.37;2.17;;;22.50;99.90;;;;;;5079781;28;20423;-75
2022/03/18 12:05:56;;;;;;;4.10;2.17;;;22.50;99.90;;;;;;5068022;28;20339;-74
2022/03/18 12:08:53;;;;;;;4.53;2.10;;;22.60;99.90;;;;;;5050865;28;20028;-74
2022/03/18 12:11:38;;;;;;;5.93;2.53;;;22.60;99.90;;;;;;5051462;28;20021;-74
2022/03/18 12:14:10;;;;;;;6.20;2.35;;;22.60;99.90;;;;;;5051632;28;20098;-76
2022/03/18 12:16:37;;;;;;;4.72;2.78;;;22.60;99.90;;;;;;5056702;28;20028;-76
2022/03/18 12:19:12;;;;;;;6.57;2.13;;;22.60;99.90;;;;;;5058263;28;20386;-75
2022/03/18 12:21:43;;;;;;;8.13;2.33;;;22.60;99.90;;;;;;5068403;28;20483;-75
2022/03/18 12:24:13;;;;;;;3.85;2.00;;;22.60;99.90;;;;;;5069493;28;20119;-76
2022/03/18 12:26:41;;;;;;;6.82;2.58;;;22.60;99.90;;;;;;5063009;28;20037;-75
2022/03/18 12:29:09;;;;;;;7.28;2.05;;;22.60;99.90;;;;;;5067869;28;20067;-75
2022/03/18 12:31:38;;;;;;;10.48;2.58;;;22.50;99.90;;;;;;5068185;28;20107;-76
2022/03/18 12:34:09;;;;;;;6.78;3.00;;;22.50;99.90;;;;;;5055415;28;20379;-75
2022/03/18 12:36:43;;;;;;;6.03;2.67;;;22.50;99.90;;;;;;5066070;28;20484;-75
2022/03/18 12:39:12;;;;;;;6.55;2.38;;;22.60;99.90;;;;;;5057432;28;20028;-76
2022/03/18 12:41:41;;;;;;;8.13;2.90;;;22.60;99.90;;;;;;5053617;28;20399;-76
2022/03/18 12:44:09;;;;;;;3.80;1.80;;;22.60;99.90;;;;;;5050270;28;20513;-75
2022/03/18 12:46:37;;;;;;;6.38;2.85;;;22.60;99.90;;;;;;5062307;28;20028;-74
2022/03/18 12:49:09;;;;;;;5.63;2.15;;;22.60;99.90;;;;;;5065717;28;20106;-75
2022/03/18 12:51:38;;;;;;;4.40;2.35;;;22.70;99.90;;;;;;5068455;28;20033;-75
2022/03/18 12:54:06;;;;;;;7.63;2.85;;;22.70;99.90;;;;;;5069441;28;20102;-76
2022/03/18 12:56:34;;;;;;;9.52;2.58;;;22.70;99.90;;;;;;5068645;28;20025;-75
2022/03/18 12:59:02;;;;;;;5.47;1.80;;;22.70;99.90;;;;;;5069754;28;20021;-75
2022/03/18 13:01:29;;;;;;;4.85;1.90;;;22.60;99.90;;;;;;5069625;28;20068;-74
2022/03/18 13:03:56;;;;;;;5.45;2.80;;;22.60;99.90;;;;;;5057397;28;20048;-76
2022/03/18 13:06:27;;;;;;;9.73;2.53;;;22.50;99.90;;;;;;5059004;28;20036;-76
2022/03/18 13:09:08;;;;;;;5.10;1.70;;;22.50;99.90;;;;;;5051491;28;20041;-77
2022/03/18 13:11:39;;;;;;;5.60;2.50;;;22.40;99.90;;;;;;5050960;28;20021;-76
2022/03/18 13:14:06;;;;;;;3.92;1.70;;;22.30;99.90;;;;;;5053401;28;20241;-73
2022/03/18 13:16:42;;;;;;;3.75;2.55;;;22.30;99.90;;;;;;5063344;28;20062;-73
2022/03/18 13:19:10;;;;;;;3.90;1.55;;;22.30;99.90;;;;;;5066882;28;20039;-76
2022/03/18 13:21:50;;;;;;;3.85;1.45;;;22.20;99.90;;;;;;5069237;28;20032;-74